createdAt,value
2022-12-11T00:00:53.527Z,27.77
2022-12-11T00:03:20.810Z,29.63
2022-12-11T00:05:47.919Z,35.43
2022-12-11T00:08:15.110Z,32.07
2022-12-11T00:10:49.771Z,32.67
2022-12-11T00:13:16.856Z,29.73
2022-12-11T00:15:43.933Z,28.93
2022-12-11T00:18:14.670Z,33.73
2022-12-11T00:20:41.878Z,29.20
2022-12-11T00:23:08.961Z,34.20
2022-12-11T00:25:35.994Z,32.00
2022-12-11T00:28:03.004Z,28.30
2022-12-11T00:30:29.969Z,30.63
2022-12-11T00:32:56.945Z,28.03
2022-12-11T00:35:23.980Z,36.43
2022-12-11T00:37:51.017Z,33.93
2022-12-11T00:40:18.055Z,32.57
2022-12-11T00:42:45.056Z,40.50
2022-12-11T00:45:12.261Z,30.00
2022-12-11T00:47:39.802Z,37.47
2022-12-11T00:50:07.761Z,31.57
2022-12-11T00:52:35.577Z,33.90
2022-12-11T00:55:02.605Z,30.83
2022-12-11T00:57:29.559Z,29.63
2022-12-11T00:59:56.554Z,26.77
2022-12-11T01:02:23.719Z,33.60
2022-12-11T01:04:50.777Z,29.53
2022-12-11T01:07:17.893Z,27.33
2022-12-11T01:10:03.471Z,28.93
2022-12-11T01:12:30.467Z,28.97
2022-12-11T01:14:57.460Z,25.30
2022-12-11T01:17:24.465Z,37.60
2022-12-11T01:19:54.930Z,29.07
2022-12-11T01:22:21.983Z,29.53
2022-12-11T01:24:49.323Z,30.33
2022-12-11T01:27:16.452Z,34.20
2022-12-11T01:29:43.526Z,27.10
2022-12-11T01:32:10.479Z,29.00
2022-12-11T01:34:37.536Z,32.67
2022-12-11T01:37:04.858Z,27.53
2022-12-11T01:39:31.829Z,35.80
2022-12-11T01:42:01.304Z,33.43
2022-12-11T01:44:31.105Z,34.53
2022-12-11T01:46:58.518Z,28.13
2022-12-11T01:49:28.450Z,34.73
2022-12-11T01:52:32.284Z,29.27
2022-12-11T01:54:59.469Z,30.53
2022-12-11T01:57:26.466Z,25.57
2022-12-11T01:59:53.598Z,33.10
2022-12-11T02:02:32.273Z,25.33
2022-12-11T02:05:01.579Z,26.47
2022-12-11T02:07:37.228Z,22.67
2022-12-11T02:10:05.312Z,31.83
2022-12-11T02:13:02.334Z,27.60
2022-12-11T02:16:31.101Z,26.23
2022-12-11T02:19:33.340Z,27.47
2022-12-11T02:22:05.210Z,27.47
2022-12-11T02:25:22.070Z,29.57
2022-12-11T02:28:41.284Z,30.70
2022-12-11T02:31:40.821Z,25.33
2022-12-11T02:34:19.967Z,31.20
2022-12-11T02:36:57.790Z,38.37
2022-12-11T02:39:27.352Z,27.10
2022-12-11T02:41:55.340Z,30.40
2022-12-11T02:44:29.530Z,31.87
2022-12-11T02:46:57.456Z,32.43
2022-12-11T02:49:26.750Z,36.10
2022-12-11T02:51:55.018Z,31.03
2022-12-11T02:54:30.546Z,35.47
2022-12-11T02:57:08.559Z,34.30
2022-12-11T02:59:46.753Z,34.70
2022-12-11T03:02:15.501Z,33.90
2022-12-11T03:04:44.371Z,29.77
2022-12-11T03:07:25.335Z,33.07
2022-12-11T03:09:53.385Z,30.30
2022-12-11T03:12:32.661Z,32.67
2022-12-11T03:15:03.886Z,30.80
2022-12-11T03:17:54.327Z,32.70
2022-12-11T03:21:02.124Z,35.70
2022-12-11T03:23:48.318Z,34.67
2022-12-11T03:26:17.208Z,40.47
2022-12-11T03:29:11.835Z,36.77
2022-12-11T03:31:49.597Z,32.93
2022-12-11T03:35:05.764Z,32.03
2022-12-11T03:37:38.981Z,32.70
2022-12-11T03:40:16.104Z,32.43
2022-12-11T03:42:47.169Z,28.83
2022-12-11T03:45:16.033Z,32.03
2022-12-11T03:47:45.111Z,36.37
2022-12-11T03:50:16.381Z,31.37
2022-12-11T03:52:46.596Z,30.63
2022-12-11T03:55:17.293Z,31.33
2022-12-11T03:57:44.739Z,36.30
2022-12-11T04:00:18.412Z,32.07
2022-12-11T04:03:12.717Z,30.90
2022-12-11T04:05:44.988Z,27.90
2022-12-11T04:08:12.494Z,29.73
2022-12-11T04:10:41.005Z,37.60
2022-12-11T04:13:10.116Z,26.20
2022-12-11T04:15:38.733Z,29.20
2022-12-11T04:18:26.473Z,30.67
2022-12-11T04:21:14.402Z,32.50
2022-12-11T04:23:59.899Z,30.20
2022-12-11T04:26:27.048Z,28.40
2022-12-11T04:28:54.330Z,34.50
2022-12-11T04:31:22.534Z,27.37
2022-12-11T04:33:49.931Z,27.37
2022-12-11T04:36:17.774Z,29.47
2022-12-11T04:38:44.792Z,28.73
2022-12-11T04:41:15.545Z,31.30
2022-12-11T04:43:47.095Z,25.87
2022-12-11T04:46:16.394Z,24.70
2022-12-11T04:48:44.553Z,29.70
2022-12-11T04:51:12.661Z,27.80
2022-12-11T04:53:39.933Z,29.20
2022-12-11T04:56:10.468Z,31.17
2022-12-11T04:58:38.957Z,29.90
2022-12-11T05:01:19.704Z,29.07
2022-12-11T05:03:47.466Z,29.87
2022-12-11T05:06:15.316Z,28.10
2022-12-11T05:08:45.128Z,25.60
2022-12-11T05:11:15.260Z,27.77
2022-12-11T05:13:43.085Z,26.03
2022-12-11T05:16:14.190Z,25.50
2022-12-11T05:18:41.709Z,32.87
2022-12-11T05:21:13.212Z,22.87
2022-12-11T05:23:41.369Z,26.93
2022-12-11T05:26:17.021Z,28.23
2022-12-11T05:28:45.401Z,27.43
2022-12-11T05:31:17.560Z,21.73
2022-12-11T05:33:46.514Z,19.03
2022-12-11T05:36:25.418Z,20.20
2022-12-11T05:38:53.733Z,19.17
2022-12-11T05:41:24.452Z,20.27
2022-12-11T05:43:52.071Z,15.87
2022-12-11T05:46:26.550Z,16.73
2022-12-11T05:49:00.933Z,14.33
2022-12-11T05:51:29.871Z,20.03
2022-12-11T05:53:58.145Z,20.33
2022-12-11T05:56:30.526Z,16.77
2022-12-11T05:58:59.696Z,17.47
2022-12-11T06:01:41.444Z,15.47
2022-12-11T06:04:10.875Z,15.47
2022-12-11T06:06:38.505Z,17.70
2022-12-11T06:09:06.643Z,18.80
2022-12-11T06:11:35.852Z,15.70
2022-12-11T06:14:04.104Z,14.17
2022-12-11T06:16:32.124Z,15.40
2022-12-11T06:18:59.364Z,16.33
2022-12-11T06:21:32.182Z,20.30
2022-12-11T06:24:03.810Z,17.43
2022-12-11T06:26:31.934Z,17.50
2022-12-11T06:28:59.054Z,17.47
2022-12-11T06:31:26.375Z,15.73
2022-12-11T06:33:54.204Z,15.17
2022-12-11T06:36:24.226Z,15.17
2022-12-11T06:38:52.778Z,16.57
2022-12-11T06:41:19.849Z,17.33
2022-12-11T06:43:47.040Z,16.50
2022-12-11T06:46:20.113Z,13.97
2022-12-11T06:48:48.788Z,18.33
2022-12-11T06:51:22.831Z,17.80
2022-12-11T06:53:56.099Z,19.03
2022-12-11T06:56:25.028Z,16.77
2022-12-11T06:58:52.666Z,13.17
2022-12-11T07:01:26.293Z,16.93
2022-12-11T07:03:59.807Z,17.60
2022-12-11T07:06:28.560Z,20.07
2022-12-11T07:08:56.155Z,16.63
2022-12-11T07:11:23.687Z,17.67
2022-12-11T07:13:50.968Z,16.13
2022-12-11T07:16:18.909Z,16.87
2022-12-11T07:18:51.406Z,16.53
2022-12-11T07:21:20.389Z,13.93
2022-12-11T07:23:48.826Z,15.33
2022-12-11T07:26:20.067Z,17.67
2022-12-11T07:28:47.492Z,16.70
2022-12-11T07:31:26.378Z,18.30
2022-12-11T07:34:04.768Z,17.60
2022-12-11T07:36:33.810Z,17.00
2022-12-11T07:39:01.917Z,15.07
2022-12-11T07:41:29.089Z,17.83
2022-12-11T07:43:56.501Z,15.53
2022-12-11T07:46:27.661Z,18.97
2022-12-11T07:48:55.103Z,20.83
2022-12-11T07:51:35.416Z,14.63
2022-12-11T07:54:12.861Z,13.53
2022-12-11T07:56:43.671Z,15.77
2022-12-11T07:59:11.088Z,18.30
2022-12-11T08:01:39.917Z,16.77
2022-12-11T08:04:11.465Z,19.97
2022-12-11T08:06:40.303Z,15.03
2022-12-11T08:09:20.609Z,17.57
2022-12-11T08:11:50.665Z,15.37
2022-12-11T08:14:19.429Z,16.00
2022-12-11T08:16:47.026Z,15.00
2022-12-11T08:19:14.662Z,14.53
2022-12-11T08:21:41.983Z,17.27
2022-12-11T08:24:10.086Z,17.03
2022-12-11T08:26:37.383Z,15.17
2022-12-11T08:29:04.569Z,20.73
2022-12-11T08:31:31.698Z,12.17
2022-12-11T08:33:58.973Z,19.97
2022-12-11T08:36:26.604Z,17.97
2022-12-11T08:39:05.194Z,14.77
2022-12-11T08:41:32.543Z,17.90
2022-12-11T08:44:01.574Z,15.60
2022-12-11T08:46:32.558Z,16.60
2022-12-11T08:49:00.028Z,15.77
2022-12-11T08:51:29.736Z,18.37
2022-12-11T08:54:01.429Z,15.17
2022-12-11T08:56:29.773Z,16.03
2022-12-11T08:59:01.029Z,14.77
2022-12-11T09:01:29.308Z,15.20
2022-12-11T09:03:57.383Z,15.37
2022-12-11T09:06:28.772Z,15.23
2022-12-11T09:08:59.536Z,16.67
2022-12-11T09:11:35.126Z,19.00
2022-12-11T09:14:07.176Z,18.27
2022-12-11T09:16:40.232Z,25.90
2022-12-11T09:19:12.755Z,33.07
2022-12-11T09:21:41.071Z,24.87
2022-12-11T09:24:11.871Z,25.13
2022-12-11T09:26:39.829Z,21.13
2022-12-11T09:29:07.329Z,20.83
2022-12-11T09:31:36.943Z,17.77
2022-12-11T09:34:11.722Z,19.57
2022-12-11T09:36:41.151Z,17.80
2022-12-11T09:39:10.773Z,18.53
2022-12-11T09:42:11.530Z,20.57
2022-12-11T09:44:52.976Z,18.20
2022-12-11T09:47:46.845Z,18.13
2022-12-11T09:50:32.892Z,19.50
2022-12-11T09:53:36.158Z,19.83
2022-12-11T09:56:32.356Z,17.83
2022-12-11T09:59:25.638Z,17.80
2022-12-11T10:02:25.272Z,18.13
2022-12-11T10:05:33.215Z,15.20
2022-12-11T10:08:47.827Z,14.27
2022-12-11T10:12:03.575Z,14.47
2022-12-11T10:14:52.029Z,15.90
2022-12-11T10:17:37.640Z,15.50
2022-12-11T10:20:39.110Z,16.77
2022-12-11T10:23:19.601Z,19.67
2022-12-11T10:26:03.951Z,19.37
2022-12-11T10:28:31.032Z,13.20
2022-12-11T10:31:06.807Z,17.10
2022-12-11T10:34:11.719Z,18.90
2022-12-11T10:36:43.247Z,19.37
2022-12-11T10:39:19.876Z,27.13
2022-12-11T10:41:54.563Z,17.47
2022-12-11T10:44:31.536Z,22.33
2022-12-11T10:47:11.902Z,16.67
2022-12-11T10:49:53.609Z,15.50
2022-12-11T10:52:39.012Z,16.90
2022-12-11T10:55:30.892Z,12.73
2022-12-11T10:58:05.759Z,16.03
2022-12-11T11:00:40.913Z,18.73
2022-12-11T11:03:27.725Z,14.77
2022-12-11T11:06:20.584Z,15.97
2022-12-11T11:08:53.479Z,19.00
2022-12-11T11:11:36.605Z,22.33
2022-12-11T11:14:20.524Z,18.83
2022-12-11T11:16:58.088Z,18.00
2022-12-11T11:19:36.447Z,17.50
2022-12-11T11:22:14.089Z,22.57
2022-12-11T11:24:53.734Z,15.83
2022-12-11T11:27:43.505Z,14.43
2022-12-11T11:30:28.523Z,25.83
2022-12-11T11:33:17.731Z,15.67
2022-12-11T11:36:20.322Z,15.97
2022-12-11T11:39:22.802Z,26.67
2022-12-11T11:42:21.866Z,17.17
2022-12-11T11:45:16.230Z,15.67
2022-12-11T11:48:20.483Z,21.77
2022-12-11T11:50:50.559Z,13.53
2022-12-11T11:53:29.489Z,20.20
2022-12-11T11:56:28.337Z,16.83
2022-12-11T11:59:26.018Z,15.90
2022-12-11T12:01:57.332Z,15.33
2022-12-11T12:04:31.358Z,13.07
2022-12-11T12:07:51.358Z,12.47
2022-12-11T12:10:52.022Z,21.67
2022-12-11T12:13:51.793Z,21.23
2022-12-11T12:20:17.013Z,16.63
2022-12-11T12:23:15.015Z,16.63
2022-12-11T12:25:58.944Z,15.30
2022-12-11T12:28:48.948Z,20.00
2022-12-11T12:31:53.865Z,15.73
2022-12-11T12:34:46.025Z,13.60
2022-12-11T12:37:46.853Z,16.13
2022-12-11T12:41:07.579Z,20.50
2022-12-11T12:44:19.251Z,18.37
2022-12-11T12:47:14.192Z,16.17
2022-12-11T12:49:51.705Z,17.60
2022-12-11T12:52:37.570Z,14.47
2022-12-11T12:55:14.025Z,19.27
2022-12-11T12:58:08.522Z,22.57
2022-12-11T13:00:43.956Z,18.60
2022-12-11T13:03:29.856Z,17.00
2022-12-11T13:06:08.939Z,19.60
2022-12-11T13:08:52.507Z,17.63
2022-12-11T13:11:30.522Z,19.97
2022-12-11T13:14:30.158Z,15.13
2022-12-11T13:17:22.125Z,16.93
2022-12-11T13:20:22.019Z,19.70
2022-12-11T13:23:00.096Z,17.80
2022-12-11T13:25:36.205Z,18.70
2022-12-11T13:28:51.805Z,21.97
2022-12-11T13:31:18.743Z,18.47
2022-12-11T13:33:56.365Z,19.10
2022-12-11T13:36:37.654Z,18.87
2022-12-11T13:39:27.577Z,18.13
2022-12-11T13:42:21.748Z,16.17
2022-12-11T13:44:49.424Z,19.70
2022-12-11T13:47:19.911Z,17.90
2022-12-11T13:49:54.536Z,17.63
2022-12-11T13:52:28.729Z,17.03
2022-12-11T13:54:59.266Z,14.83
2022-12-11T13:57:28.651Z,17.43
2022-12-11T13:59:58.168Z,14.47
2022-12-11T14:02:40.025Z,17.87
2022-12-11T14:05:12.102Z,15.20
2022-12-11T14:07:52.955Z,18.03
2022-12-11T14:10:32.462Z,21.20
2022-12-11T14:13:27.266Z,17.47
2022-12-11T14:15:54.871Z,15.23
2022-12-11T14:18:27.315Z,16.43
2022-12-11T14:21:04.305Z,19.10
2022-12-11T14:23:37.138Z,18.47
2022-12-11T14:26:27.233Z,16.40
2022-12-11T14:28:54.675Z,19.77
2022-12-11T14:31:48.097Z,18.33
2022-12-11T14:34:25.056Z,18.13
2022-12-11T14:36:52.422Z,19.47
2022-12-11T14:39:40.603Z,21.53
2022-12-11T14:42:40.477Z,19.57
2022-12-11T14:45:32.072Z,18.37
2022-12-11T14:48:01.817Z,21.83
2022-12-11T14:50:59.998Z,24.07
2022-12-11T14:53:37.915Z,20.57
2022-12-11T14:56:15.886Z,19.77
2022-12-11T14:59:09.136Z,21.00
2022-12-11T15:01:38.534Z,19.23
2022-12-11T15:04:14.588Z,25.23
2022-12-11T15:06:51.199Z,17.27
2022-12-11T15:09:38.125Z,21.10
2022-12-11T15:12:14.492Z,22.80
2022-12-11T15:15:05.037Z,22.70
2022-12-11T15:17:34.493Z,20.57
2022-12-11T15:20:29.898Z,21.67
2022-12-11T15:23:01.661Z,20.47
2022-12-11T15:25:30.460Z,26.77
2022-12-11T15:28:04.852Z,21.77
2022-12-11T15:30:37.973Z,26.60
2022-12-11T15:33:10.916Z,25.93
2022-12-11T15:35:40.543Z,20.83
2022-12-11T15:38:38.718Z,19.67
2022-12-11T15:41:13.525Z,20.63
2022-12-11T15:43:40.842Z,25.50
2022-12-11T15:46:07.885Z,23.00
2022-12-11T15:48:35.061Z,24.87
2022-12-11T15:51:03.769Z,20.70
2022-12-11T15:53:31.042Z,24.90
2022-12-11T15:55:59.738Z,22.40
2022-12-11T15:58:27.454Z,26.13
2022-12-11T16:00:54.990Z,25.20
2022-12-11T16:03:24.280Z,22.40
2022-12-11T16:05:53.005Z,20.77
2022-12-11T16:08:23.605Z,24.37
2022-12-11T16:10:54.684Z,23.77
2022-12-11T16:13:22.599Z,25.83
2022-12-11T16:15:51.849Z,23.87
2022-12-11T16:18:23.334Z,23.17
2022-12-11T16:20:52.184Z,25.00
2022-12-11T16:23:20.208Z,24.57
2022-12-11T16:25:47.804Z,22.97
2022-12-11T16:28:18.145Z,26.60
2022-12-11T16:30:45.897Z,26.03
2022-12-11T16:33:13.882Z,25.27
2022-12-11T16:35:42.827Z,22.73
2022-12-11T16:38:11.138Z,22.50
2022-12-11T16:40:41.847Z,23.70
2022-12-11T16:43:09.017Z,25.57
2022-12-11T16:45:36.375Z,23.70
2022-12-11T16:48:05.154Z,27.70
2022-12-11T16:50:32.525Z,27.70
2022-12-11T16:52:59.776Z,28.23
2022-12-11T16:55:27.084Z,25.63
2022-12-11T16:57:55.058Z,29.13
2022-12-11T17:00:22.495Z,23.40
2022-12-11T17:02:49.673Z,28.70
2022-12-11T17:05:16.809Z,26.57
2022-12-11T17:07:43.907Z,29.27
2022-12-11T17:10:11.405Z,27.37
2022-12-11T17:12:38.914Z,28.67
2022-12-11T17:15:07.200Z,26.17
2022-12-11T17:17:34.265Z,26.50
2022-12-11T17:20:01.681Z,27.13
2022-12-11T17:22:29.148Z,28.13
2022-12-11T17:24:56.253Z,21.77
2022-12-11T17:27:23.277Z,26.00
2022-12-11T17:29:50.746Z,27.90
2022-12-11T17:32:18.462Z,28.40
2022-12-11T17:34:48.550Z,27.27
2022-12-11T17:37:16.423Z,27.10
2022-12-11T17:39:43.761Z,28.13
2022-12-11T17:42:11.033Z,29.87
2022-12-11T17:44:38.808Z,30.30
2022-12-11T17:47:10.837Z,31.67
2022-12-11T17:49:40.427Z,30.77
2022-12-11T17:52:08.156Z,28.03
2022-12-11T17:54:35.283Z,29.17
2022-12-11T17:57:02.900Z,30.23
2022-12-11T17:59:29.903Z,32.40
2022-12-11T18:01:57.611Z,29.83
2022-12-11T18:04:25.179Z,33.13
2022-12-11T18:06:52.179Z,31.63
2022-12-11T18:09:22.313Z,27.77
2022-12-11T18:11:49.333Z,31.07
2022-12-11T18:14:17.674Z,29.13
2022-12-11T18:16:45.043Z,30.27
2022-12-11T18:19:12.431Z,32.93
2022-12-11T18:21:43.712Z,30.50
2022-12-11T18:24:11.408Z,30.87
2022-12-11T18:26:38.663Z,32.27
2022-12-11T18:29:06.640Z,29.53
2022-12-11T18:31:36.381Z,31.60
2022-12-11T18:34:06.973Z,31.23
2022-12-11T18:36:34.915Z,32.57
2022-12-11T18:39:03.316Z,32.27
2022-12-11T18:41:30.364Z,28.17
2022-12-11T18:44:05.284Z,30.93
2022-12-11T18:46:39.758Z,28.90
2022-12-11T18:49:07.163Z,25.70
2022-12-11T18:51:34.254Z,29.17
2022-12-11T18:54:01.459Z,28.37
2022-12-11T18:56:31.627Z,36.23
2022-12-11T18:58:58.826Z,26.87
2022-12-11T19:01:29.109Z,35.00
2022-12-11T19:04:04.264Z,29.53
2022-12-11T19:06:35.271Z,27.60
2022-12-11T19:09:07.644Z,26.73
2022-12-11T19:11:40.772Z,29.30
2022-12-11T19:14:10.635Z,28.40
2022-12-11T19:16:45.467Z,35.77
2022-12-11T19:19:18.846Z,45.60
2022-12-11T19:21:48.269Z,45.07
2022-12-11T19:24:23.358Z,26.33
2022-12-11T19:26:51.314Z,27.47
2022-12-11T19:29:27.717Z,39.20
2022-12-11T19:31:55.852Z,32.83
2022-12-11T19:34:23.552Z,25.70
2022-12-11T19:36:51.328Z,24.73
2022-12-11T19:39:19.667Z,24.83
2022-12-11T19:41:47.003Z,30.40
2022-12-11T19:44:14.136Z,26.93
2022-12-11T19:46:41.305Z,24.87
2022-12-11T19:49:08.472Z,29.97
2022-12-11T19:51:40.028Z,26.30
2022-12-11T19:54:15.326Z,26.27
2022-12-11T19:56:43.920Z,27.43
2022-12-11T19:59:16.783Z,24.30
2022-12-11T20:01:50.644Z,29.00
2022-12-11T20:04:18.386Z,25.73
2022-12-11T20:06:47.420Z,24.20
2022-12-11T20:09:15.942Z,25.80
2022-12-11T20:11:45.495Z,26.57
2022-12-11T20:14:26.655Z,27.70
2022-12-11T20:17:13.754Z,28.07
2022-12-11T20:19:42.124Z,26.20
2022-12-11T20:22:09.460Z,25.07
2022-12-11T20:24:37.031Z,25.27
2022-12-11T20:27:04.728Z,27.40
2022-12-11T20:29:31.944Z,26.57
2022-12-11T20:32:02.005Z,24.40
2022-12-11T20:34:29.092Z,26.43
2022-12-11T20:36:56.392Z,24.50
2022-12-11T20:39:24.757Z,26.77
2022-12-11T20:41:51.889Z,26.73
2022-12-11T20:44:20.018Z,28.07
2022-12-11T20:46:47.094Z,26.70
2022-12-11T20:49:14.143Z,21.50
2022-12-11T20:51:41.936Z,27.47
2022-12-11T20:54:09.081Z,27.57
2022-12-11T20:56:38.601Z,24.73
2022-12-11T20:59:05.930Z,25.60
2022-12-11T21:01:40.155Z,30.50
2022-12-11T21:04:07.370Z,29.37
2022-12-11T21:06:40.546Z,26.50
2022-12-11T21:09:18.974Z,27.67
2022-12-11T21:11:49.198Z,27.40
2022-12-11T21:14:18.648Z,28.80
2022-12-11T21:16:46.848Z,32.07
2022-12-11T21:19:17.136Z,29.90
2022-12-11T21:21:45.910Z,26.90
2022-12-11T21:24:26.397Z,28.33
2022-12-11T21:26:57.640Z,31.40
2022-12-11T21:29:29.151Z,26.70
2022-12-11T21:31:56.848Z,33.27
2022-12-11T21:34:25.757Z,30.87
2022-12-11T21:36:57.060Z,28.27
2022-12-11T21:39:26.675Z,33.50
2022-12-11T21:41:53.750Z,32.47
2022-12-11T21:47:08.847Z,35.80
2022-12-11T21:49:36.823Z,33.90
2022-12-11T21:52:04.595Z,39.20
2022-12-11T21:54:31.586Z,38.80
2022-12-11T21:57:00.281Z,35.37
2022-12-11T21:59:28.533Z,37.73
2022-12-11T22:01:56.480Z,38.67
2022-12-11T22:04:23.871Z,40.10
2022-12-11T22:06:50.970Z,38.83
2022-12-11T22:09:18.355Z,36.97
2022-12-11T22:11:58.674Z,39.10
2022-12-11T22:14:33.228Z,36.57
2022-12-11T22:17:00.838Z,35.57
2022-12-11T22:19:32.519Z,33.90
2022-12-11T22:22:00.152Z,32.57
2022-12-11T22:24:35.004Z,34.33
2022-12-11T22:27:06.053Z,37.67
2022-12-11T22:29:33.507Z,28.57
2022-12-11T22:32:04.517Z,29.17
2022-12-11T22:34:31.690Z,35.47
2022-12-11T22:36:59.439Z,37.20
2022-12-11T22:39:26.526Z,34.83
2022-12-11T22:41:59.591Z,37.67
2022-12-11T22:44:27.114Z,43.40
2022-12-11T22:46:54.538Z,37.23
2022-12-11T22:49:21.847Z,37.93
2022-12-11T22:51:49.444Z,40.07
2022-12-11T22:54:17.235Z,37.57
2022-12-11T22:56:50.493Z,40.10
2022-12-11T22:59:17.647Z,42.33
2022-12-11T23:01:44.783Z,41.17
2022-12-11T23:04:13.423Z,43.07
2022-12-11T23:06:40.874Z,42.77
2022-12-11T23:09:08.521Z,39.43
2022-12-11T23:11:39.936Z,43.10
2022-12-11T23:14:16.363Z,44.43
2022-12-11T23:16:44.326Z,46.37
2022-12-11T23:19:12.942Z,42.80
2022-12-11T23:21:40.646Z,45.97
2022-12-11T23:24:08.380Z,39.97
2022-12-11T23:26:36.046Z,46.57
2022-12-11T23:29:07.487Z,50.67
2022-12-11T23:31:34.758Z,54.97
2022-12-11T23:34:02.118Z,52.43
2022-12-11T23:36:30.412Z,55.43
2022-12-11T23:38:57.555Z,53.73
2022-12-11T23:41:25.285Z,50.43
2022-12-11T23:43:52.655Z,50.57
2022-12-11T23:46:24.327Z,64.17
2022-12-11T23:48:53.183Z,59.83
2022-12-11T23:51:22.945Z,61.93
2022-12-11T23:53:50.587Z,51.70
2022-12-11T23:56:28.549Z,52.93
2022-12-11T23:58:57.092Z,58.13
